createdAt,value
2023-11-11T00:00:39.074Z,0.95
2023-11-11T00:03:08.781Z,0.90
2023-11-11T00:05:35.623Z,0.90
2023-11-11T00:08:02.692Z,1.00
2023-11-11T00:10:29.975Z,0.80
2023-11-11T00:12:56.532Z,0.80
2023-11-11T00:15:23.036Z,0.82
2023-11-11T00:17:49.485Z,0.90
2023-11-11T00:20:17.797Z,1.15
2023-11-11T00:22:45.955Z,0.80
2023-11-11T00:25:14.321Z,1.48
2023-11-11T00:27:44.938Z,0.90
2023-11-11T00:30:13.294Z,0.90
2023-11-11T00:32:39.796Z,1.13
2023-11-11T00:35:09.353Z,0.90
2023-11-11T00:37:36.408Z,0.90
2023-11-11T00:40:03.016Z,0.90
2023-11-11T00:42:29.492Z,0.80
2023-11-11T00:44:55.991Z,1.02
2023-11-11T00:47:22.497Z,0.95
2023-11-11T00:49:50.559Z,1.33
2023-11-11T00:52:17.912Z,0.90
2023-11-11T00:54:44.798Z,0.95
2023-11-11T00:57:11.406Z,0.90
2023-11-11T00:59:37.899Z,1.00
2023-11-11T01:02:05.569Z,0.95
2023-11-11T01:04:32.304Z,0.88
2023-11-11T01:06:58.819Z,0.98
2023-11-11T01:09:25.416Z,0.82
2023-11-11T01:11:52.230Z,0.90
2023-11-11T01:14:18.694Z,1.00
2023-11-11T01:16:45.262Z,1.05
2023-11-11T01:19:12.028Z,1.00
2023-11-11T01:21:38.566Z,0.90
2023-11-11T01:24:05.802Z,1.00
2023-11-11T01:26:32.403Z,0.90
2023-11-11T01:28:58.852Z,0.80
2023-11-11T01:31:25.524Z,1.00
2023-11-11T01:33:52.013Z,0.80
2023-11-11T01:36:18.492Z,0.80
2023-11-11T01:38:45.040Z,0.95
2023-11-11T01:41:11.573Z,0.70
2023-11-11T01:43:37.993Z,0.90
2023-11-11T01:46:07.038Z,0.80
2023-11-11T01:48:35.454Z,0.80
2023-11-11T01:51:05.572Z,0.90
2023-11-11T01:53:34.360Z,0.82
2023-11-11T01:56:01.714Z,0.80
2023-11-11T01:58:29.081Z,0.70
2023-11-11T02:00:57.622Z,0.82
2023-11-11T02:03:24.465Z,0.90
2023-11-11T02:05:54.517Z,0.80
2023-11-11T02:08:21.267Z,0.80
2023-11-11T02:10:47.889Z,0.70
2023-11-11T02:13:15.088Z,1.00
2023-11-11T02:15:42.512Z,0.70
2023-11-11T02:18:11.440Z,0.75
2023-11-11T02:20:38.127Z,0.75
2023-11-11T02:23:04.629Z,0.90
2023-11-11T02:25:31.474Z,0.60
2023-11-11T02:27:59.147Z,0.80
2023-11-11T02:30:26.002Z,0.77
2023-11-11T02:32:52.572Z,0.60
2023-11-11T02:35:19.190Z,0.90
2023-11-11T02:37:45.756Z,0.70
2023-11-11T02:40:14.045Z,0.63
2023-11-11T02:42:41.547Z,0.68
2023-11-11T02:45:08.947Z,0.70
2023-11-11T02:47:35.534Z,0.88
2023-11-11T02:50:02.330Z,0.90
2023-11-11T02:52:28.685Z,0.73
2023-11-11T02:54:55.095Z,0.68
2023-11-11T02:57:21.555Z,0.75
2023-11-11T02:59:48.010Z,0.80
2023-11-11T03:02:14.554Z,0.60
2023-11-11T03:04:41.348Z,0.75
2023-11-11T03:07:08.044Z,0.70
2023-11-11T03:09:34.563Z,0.80
2023-11-11T03:12:02.477Z,0.70
2023-11-11T03:14:29.206Z,0.60
2023-11-11T03:16:55.698Z,0.77
2023-11-11T03:19:23.066Z,0.57
2023-11-11T03:21:49.588Z,0.70
2023-11-11T03:24:16.178Z,0.80
2023-11-11T03:26:42.628Z,0.68
2023-11-11T03:29:09.182Z,0.70
2023-11-11T03:31:35.845Z,0.60
2023-11-11T03:34:02.267Z,0.80
2023-11-11T03:36:28.745Z,0.70
2023-11-11T03:38:55.409Z,0.70
2023-11-11T03:41:21.858Z,0.70
2023-11-11T03:43:48.234Z,0.60
2023-11-11T03:46:14.695Z,0.95
2023-11-11T03:48:41.197Z,0.63
2023-11-11T03:51:07.644Z,0.60
2023-11-11T03:53:34.141Z,0.80
2023-11-11T03:56:08.727Z,0.50
2023-11-11T03:58:37.165Z,0.88
2023-11-11T04:01:09.232Z,0.50
2023-11-11T04:03:37.750Z,0.60
2023-11-11T04:06:04.403Z,0.43
2023-11-11T04:08:30.802Z,0.60
2023-11-11T04:10:57.262Z,0.63
2023-11-11T04:13:23.681Z,0.70
2023-11-11T04:15:51.312Z,0.52
2023-11-11T04:18:17.827Z,0.57
2023-11-11T04:20:44.294Z,0.60
2023-11-11T04:23:10.739Z,0.60
2023-11-11T04:25:37.278Z,0.40
2023-11-11T04:28:03.816Z,0.70
2023-11-11T04:30:30.465Z,0.63
2023-11-11T04:32:57.058Z,0.50
2023-11-11T04:35:23.608Z,0.73
2023-11-11T04:37:50.375Z,0.70
2023-11-11T04:40:16.828Z,0.55
2023-11-11T04:42:44.977Z,0.60
2023-11-11T04:45:11.654Z,0.52
2023-11-11T04:47:38.210Z,0.50
2023-11-11T04:50:05.618Z,0.70
2023-11-11T04:52:32.845Z,0.50
2023-11-11T04:54:59.302Z,0.38
2023-11-11T04:57:25.716Z,0.50
2023-11-11T04:59:52.162Z,0.43
2023-11-11T05:02:18.564Z,0.60
2023-11-11T05:04:45.003Z,0.47
2023-11-11T05:07:11.398Z,0.55
2023-11-11T05:09:37.866Z,0.50
2023-11-11T05:12:06.137Z,0.55
2023-11-11T05:14:32.879Z,0.65
2023-11-11T05:16:59.578Z,0.50
2023-11-11T05:19:27.046Z,0.40
2023-11-11T05:21:53.535Z,0.52
2023-11-11T05:24:21.453Z,0.60
2023-11-11T05:26:47.938Z,0.50
2023-11-11T05:29:14.360Z,0.50
2023-11-11T05:31:40.885Z,0.45
2023-11-11T05:34:08.969Z,0.60
2023-11-11T05:36:35.440Z,0.50
2023-11-11T05:39:02.226Z,0.50
2023-11-11T05:41:30.937Z,0.50
2023-11-11T05:43:57.899Z,0.52
2023-11-11T05:46:25.755Z,0.60
2023-11-11T05:48:52.289Z,0.50
2023-11-11T05:51:18.976Z,0.50
2023-11-11T05:53:46.161Z,0.90
2023-11-11T05:56:14.408Z,0.70
2023-11-11T05:58:40.960Z,0.47
2023-11-11T06:01:07.657Z,0.50
2023-11-11T06:03:34.398Z,0.30
2023-11-11T06:06:04.174Z,0.45
2023-11-11T06:08:30.670Z,0.32
2023-11-11T06:10:57.123Z,0.52
2023-11-11T06:13:23.585Z,0.43
2023-11-11T06:15:50.312Z,0.50
2023-11-11T06:18:17.105Z,0.50
2023-11-11T06:20:43.996Z,0.45
2023-11-11T06:25:40.955Z,0.57
2023-11-11T06:28:07.874Z,0.52
2023-11-11T06:30:34.466Z,0.40
2023-11-11T06:33:01.084Z,0.45
2023-11-11T06:35:29.083Z,0.40
2023-11-11T06:37:58.558Z,0.52
2023-11-11T06:40:25.724Z,0.50
2023-11-11T06:42:56.060Z,0.32
2023-11-11T06:45:23.537Z,0.40
2023-11-11T06:47:50.360Z,0.68
2023-11-11T06:50:18.945Z,0.25
2023-11-11T06:52:46.198Z,0.52
2023-11-11T06:55:13.147Z,0.60
2023-11-11T06:57:39.791Z,0.40
2023-11-11T07:00:09.554Z,0.30
2023-11-11T07:02:35.942Z,0.47
2023-11-11T07:05:05.908Z,0.57
2023-11-11T07:07:32.660Z,0.47
2023-11-11T07:09:59.161Z,0.70
2023-11-11T07:12:25.848Z,0.55
2023-11-11T07:14:53.048Z,0.52
2023-11-11T07:17:20.052Z,0.30
2023-11-11T07:19:46.527Z,0.40
2023-11-11T07:24:45.403Z,0.40
2023-11-11T07:27:12.280Z,0.50
2023-11-11T07:29:38.756Z,0.38
2023-11-11T07:32:05.329Z,0.47
2023-11-11T07:34:32.718Z,0.32
2023-11-11T07:37:00.493Z,0.60
2023-11-11T07:39:26.885Z,0.50
2023-11-11T07:41:53.324Z,0.35
2023-11-11T07:44:19.680Z,0.57
2023-11-11T07:46:47.076Z,0.50
2023-11-11T07:49:14.693Z,0.60
2023-11-11T07:51:41.924Z,0.65
2023-11-11T07:54:08.636Z,0.57
2023-11-11T07:56:36.010Z,0.40
2023-11-11T07:59:03.544Z,0.40
2023-11-11T08:01:30.380Z,0.70
2023-11-11T08:03:57.154Z,0.63
2023-11-11T08:06:26.372Z,0.43
2023-11-11T08:08:55.872Z,0.65
2023-11-11T08:11:23.209Z,0.38
2023-11-11T08:13:49.805Z,0.40
2023-11-11T08:16:19.350Z,0.40
2023-11-11T08:18:48.458Z,0.43
2023-11-11T08:21:20.427Z,0.38
2023-11-11T08:23:47.088Z,0.60
2023-11-11T08:26:13.508Z,0.40
2023-11-11T08:28:39.895Z,0.57
2023-11-11T08:31:07.247Z,0.40
2023-11-11T08:33:33.722Z,0.45
2023-11-11T08:36:01.098Z,0.50
2023-11-11T08:38:27.482Z,0.35
2023-11-11T11:12:32.907Z,0.50
2023-11-11T11:15:06.964Z,0.40
2023-11-11T11:17:39.725Z,0.50
2023-11-11T11:20:10.787Z,0.65
2023-11-11T11:22:41.044Z,0.90
2023-11-11T11:25:41.673Z,0.70
2023-11-11T11:28:11.042Z,0.47
2023-11-11T11:30:59.498Z,1.10
2023-11-11T11:33:31.997Z,0.90
2023-11-11T11:36:05.636Z,0.98
2023-11-11T11:38:37.552Z,0.77
2023-11-11T11:41:11.058Z,0.70
2023-11-11T11:43:40.131Z,0.80
2023-11-11T11:46:06.941Z,0.93
2023-11-11T11:48:35.768Z,1.00
2023-11-11T11:51:05.340Z,0.55
2023-11-11T11:53:32.090Z,0.80
2023-11-11T11:55:58.532Z,0.80
2023-11-11T11:58:25.175Z,0.82
2023-11-11T12:00:51.614Z,0.90
2023-11-11T12:03:18.206Z,0.90
2023-11-11T12:05:44.700Z,0.80
2023-11-11T12:08:12.800Z,0.70
2023-11-11T12:10:47.220Z,0.80
2023-11-11T12:13:14.293Z,0.70
2023-11-11T12:15:50.488Z,0.70
2023-11-11T12:18:19.082Z,0.70
2023-11-11T12:20:48.516Z,0.70
2023-11-11T12:23:15.388Z,0.70
2023-11-11T12:25:42.480Z,0.75
2023-11-11T12:28:09.082Z,0.63
2023-11-11T12:30:35.517Z,1.10
2023-11-11T12:33:11.775Z,1.00
2023-11-11T12:35:41.901Z,0.95
2023-11-11T12:38:29.283Z,0.82
2023-11-11T12:40:57.635Z,0.90
2023-11-11T12:43:24.476Z,1.00
2023-11-11T12:45:53.262Z,0.70
2023-11-11T12:48:19.902Z,0.65
2023-11-11T12:50:46.354Z,0.73
2023-11-11T12:53:14.925Z,0.60
2023-11-11T12:55:45.307Z,0.82
2023-11-11T12:58:28.025Z,1.00
2023-11-11T13:01:07.431Z,0.85
2023-11-11T13:03:34.384Z,0.52
2023-11-11T13:06:02.070Z,0.90
2023-11-11T13:08:29.744Z,1.02
2023-11-11T13:10:57.953Z,0.60
2023-11-11T13:13:24.882Z,0.90
2023-11-11T13:15:55.662Z,0.77
2023-11-11T13:18:25.994Z,0.82
2023-11-11T13:20:53.995Z,0.57
2023-11-11T13:23:22.044Z,0.75
2023-11-11T13:25:51.926Z,0.70
2023-11-11T13:28:19.034Z,0.60
2023-11-11T13:30:49.577Z,0.80
2023-11-11T13:33:16.862Z,0.90
2023-11-11T13:35:47.812Z,0.75
2023-11-11T13:38:17.675Z,0.93
2023-11-11T13:40:47.780Z,0.85
2023-11-11T13:43:15.762Z,0.70
2023-11-11T13:45:43.059Z,0.75
2023-11-11T13:48:10.947Z,0.70
2023-11-11T13:50:37.524Z,0.60
2023-11-11T13:53:05.753Z,0.90
2023-11-11T13:55:32.886Z,0.60
2023-11-11T13:58:01.548Z,0.70
2023-11-11T14:00:29.136Z,1.08
2023-11-11T14:02:57.407Z,1.08
2023-11-11T14:05:25.407Z,1.00
2023-11-11T14:07:55.114Z,0.80
2023-11-11T14:10:24.691Z,0.73
2023-11-11T14:12:58.592Z,0.73
2023-11-11T14:15:36.632Z,0.77
2023-11-11T14:18:04.438Z,0.70
2023-11-11T14:20:31.018Z,0.80
2023-11-11T14:23:00.965Z,0.80
2023-11-11T14:27:55.633Z,0.90
2023-11-11T14:30:24.875Z,0.60
2023-11-11T14:32:53.390Z,0.90
2023-11-11T14:35:21.625Z,0.70
2023-11-11T14:37:48.790Z,0.82
2023-11-11T14:40:18.917Z,0.40
2023-11-11T14:42:46.761Z,0.75
2023-11-11T14:45:14.601Z,0.60
2023-11-11T14:47:44.813Z,0.65
2023-11-11T14:50:12.555Z,0.75
2023-11-11T14:52:39.150Z,0.80
2023-11-11T14:55:06.614Z,0.60
2023-11-11T14:57:35.252Z,0.70
2023-11-11T15:00:05.317Z,0.60
2023-11-11T15:02:36.891Z,0.73
2023-11-11T15:05:10.141Z,0.70
2023-11-11T15:07:37.334Z,0.82
2023-11-11T15:10:07.889Z,0.77
2023-11-11T15:12:34.613Z,0.63
2023-11-11T15:15:02.786Z,0.77
2023-11-11T15:17:29.407Z,0.82
2023-11-11T15:19:57.043Z,0.77
2023-11-11T15:22:23.526Z,0.70
2023-11-11T15:24:52.192Z,0.47
2023-11-11T15:27:18.671Z,0.50
2023-11-11T15:29:47.003Z,0.70
2023-11-11T15:32:13.629Z,0.50
2023-11-11T15:34:40.538Z,0.57
2023-11-11T15:37:07.013Z,0.77
2023-11-11T15:39:34.529Z,0.80
2023-11-11T15:42:01.987Z,0.70
2023-11-11T15:44:32.294Z,0.70
2023-11-11T15:47:00.182Z,0.70
2023-11-11T15:49:27.619Z,0.50
2023-11-11T15:51:55.254Z,0.90
2023-11-11T15:54:21.974Z,0.40
2023-11-11T15:56:50.508Z,0.60
2023-11-11T15:59:17.801Z,0.70
2023-11-11T16:01:44.301Z,0.70
2023-11-11T16:04:12.105Z,0.40
2023-11-11T16:06:42.658Z,0.60
2023-11-11T16:11:37.994Z,1.10
2023-11-11T16:14:04.593Z,1.27
2023-11-11T16:16:31.068Z,1.63
2023-11-11T16:18:57.540Z,1.73
2023-11-11T16:21:25.341Z,1.98
2023-11-11T16:23:53.223Z,1.75
2023-11-11T16:26:21.698Z,2.20
2023-11-11T16:28:50.840Z,1.90
2023-11-11T16:31:25.089Z,2.30
2023-11-11T16:33:59.645Z,2.22
2023-11-11T16:36:27.511Z,2.00
2023-11-11T16:38:55.730Z,2.42
2023-11-11T16:41:23.129Z,2.10
2023-11-11T16:43:49.591Z,2.08
2023-11-11T16:46:16.385Z,2.30
2023-11-11T16:48:43.425Z,2.13
2023-11-11T16:51:11.600Z,1.92
2023-11-11T16:53:38.082Z,1.80
2023-11-11T16:56:08.437Z,1.52
2023-11-11T16:58:38.873Z,2.00
2023-11-11T17:03:37.041Z,1.50
2023-11-11T17:06:05.087Z,1.13
2023-11-11T17:08:32.631Z,1.70
2023-11-11T17:11:01.222Z,2.00
2023-11-11T17:13:27.757Z,2.17
2023-11-11T17:15:55.197Z,1.35
2023-11-11T17:18:21.621Z,1.40
2023-11-11T17:20:48.055Z,1.30
2023-11-11T17:23:14.799Z,1.73
2023-11-11T17:25:42.699Z,1.40
2023-11-11T17:28:11.452Z,1.48
2023-11-11T17:30:40.403Z,1.60
2023-11-11T17:33:14.693Z,1.50
2023-11-11T17:35:48.311Z,1.70
2023-11-11T17:38:14.749Z,1.20
2023-11-11T17:40:41.169Z,1.58
2023-11-11T17:43:09.499Z,1.70
2023-11-11T17:45:36.512Z,1.60
2023-11-11T17:48:03.783Z,1.30
2023-11-11T17:50:31.591Z,1.10
2023-11-11T17:53:09.859Z,1.48
2023-11-11T17:55:43.087Z,1.80
2023-11-11T17:58:09.449Z,1.70
2023-11-11T18:00:35.841Z,1.40
2023-11-11T18:03:02.328Z,1.83
2023-11-11T18:05:34.353Z,1.60
2023-11-11T18:08:02.625Z,1.55
2023-11-11T18:10:29.597Z,1.20
2023-11-11T18:12:56.103Z,1.20
2023-11-11T18:15:22.543Z,1.48
2023-11-11T18:17:50.367Z,1.10
2023-11-11T18:20:16.995Z,1.35
2023-11-11T18:22:43.471Z,1.65
2023-11-11T18:25:11.245Z,1.60
2023-11-11T18:27:38.830Z,1.55
2023-11-11T18:30:07.089Z,1.40
2023-11-11T18:32:33.606Z,1.83
2023-11-11T18:35:01.521Z,1.20
2023-11-11T18:37:28.071Z,2.20
2023-11-11T18:39:54.703Z,1.40
2023-11-11T18:42:21.281Z,1.67
2023-11-11T18:44:47.714Z,1.27
2023-11-11T18:47:14.212Z,1.42
2023-11-11T18:49:40.710Z,1.90
2023-11-11T18:52:07.257Z,1.45
2023-11-11T18:54:33.813Z,1.60
2023-11-11T18:57:00.335Z,1.65
2023-11-11T18:59:26.841Z,1.10
2023-11-11T19:01:53.370Z,1.25
2023-11-11T19:04:19.961Z,1.42
2023-11-11T19:06:46.357Z,1.20
2023-11-11T19:09:14.033Z,1.20
2023-11-11T19:11:45.229Z,1.45
2023-11-11T19:14:12.740Z,1.30
2023-11-11T19:16:41.651Z,1.52
2023-11-11T19:19:10.956Z,1.38
2023-11-11T19:21:38.314Z,1.20
2023-11-11T19:24:10.044Z,1.20
2023-11-11T19:26:37.141Z,1.45
2023-11-11T19:29:03.837Z,1.50
2023-11-11T19:31:31.080Z,1.35
2023-11-11T19:33:57.618Z,1.15
2023-11-11T19:36:24.576Z,1.13
2023-11-11T19:38:51.106Z,1.20
2023-11-11T19:41:17.736Z,1.10
2023-11-11T19:43:47.222Z,1.23
2023-11-11T19:46:18.061Z,1.30
2023-11-11T19:48:45.923Z,1.48
2023-11-11T19:51:24.667Z,1.20
2023-11-11T19:53:53.518Z,1.20
2023-11-11T19:56:21.107Z,1.17
2023-11-11T19:58:48.478Z,1.38
2023-11-11T20:01:15.079Z,1.35
2023-11-11T20:03:42.307Z,1.20
2023-11-11T20:06:10.036Z,0.98
2023-11-11T20:08:36.524Z,1.23
2023-11-11T20:11:03.543Z,1.30
2023-11-11T20:13:30.025Z,1.45
2023-11-11T20:15:56.877Z,1.27
2023-11-11T20:18:23.368Z,1.40
2023-11-11T20:20:49.882Z,1.42
2023-11-11T20:23:16.394Z,1.10
2023-11-11T20:25:42.834Z,1.33
2023-11-11T20:28:09.261Z,1.52
2023-11-11T20:30:39.014Z,1.30
2023-11-11T20:33:10.776Z,1.10
2023-11-11T20:35:37.844Z,1.30
2023-11-11T20:38:04.966Z,1.30
2023-11-11T20:40:31.501Z,1.40
2023-11-11T20:42:57.940Z,1.05
2023-11-11T20:45:24.817Z,2.78
2023-11-11T20:47:51.722Z,1.02
2023-11-11T20:50:18.483Z,1.30
2023-11-11T20:52:46.032Z,1.25
2023-11-11T20:55:15.139Z,1.15
2023-11-11T20:57:44.974Z,1.50
2023-11-11T21:00:13.347Z,1.10
2023-11-11T21:02:41.441Z,1.30
2023-11-11T21:05:12.379Z,1.13
2023-11-11T21:07:40.277Z,1.60
2023-11-11T21:10:09.567Z,1.27
2023-11-11T21:12:36.758Z,1.40
2023-11-11T21:15:03.874Z,1.00
2023-11-11T21:17:31.295Z,1.20
2023-11-11T21:19:58.535Z,1.58
2023-11-11T21:22:25.218Z,1.20
2023-11-11T21:24:51.745Z,1.02
2023-11-11T21:27:18.169Z,1.00
2023-11-11T21:29:45.969Z,1.30
2023-11-11T21:32:13.705Z,1.40
2023-11-11T21:34:41.339Z,1.30
2023-11-11T21:37:09.608Z,1.35
2023-11-11T21:39:36.407Z,0.93
2023-11-11T21:42:03.298Z,1.58
2023-11-11T21:44:29.816Z,1.30
2023-11-11T21:46:56.275Z,1.17
2023-11-11T21:49:24.305Z,1.65
2023-11-11T21:51:50.809Z,1.02
2023-11-11T21:54:17.315Z,1.23
2023-11-11T21:56:43.797Z,1.23
2023-11-11T21:59:11.869Z,1.13
2023-11-11T22:01:43.326Z,1.25
2023-11-11T22:04:10.595Z,1.27
2023-11-11T22:06:37.911Z,1.30
2023-11-11T22:09:06.689Z,1.40
2023-11-11T22:11:34.141Z,0.93
2023-11-11T22:14:00.848Z,0.90
2023-11-11T22:16:27.404Z,1.23
2023-11-11T22:18:54.626Z,1.20
2023-11-11T22:21:21.249Z,1.00
2023-11-11T22:23:47.689Z,1.10
2023-11-11T22:26:18.513Z,1.52
2023-11-11T22:28:46.470Z,1.10
2023-11-11T22:31:13.324Z,1.05
2023-11-11T22:33:39.908Z,1.13
2023-11-11T22:36:08.809Z,1.80
2023-11-11T22:38:35.217Z,0.90
2023-11-11T22:41:01.725Z,1.00
2023-11-11T22:43:28.139Z,1.10
2023-11-11T22:45:54.627Z,1.17
2023-11-11T22:48:21.077Z,1.30
2023-11-11T22:50:47.584Z,1.10
2023-11-11T22:53:14.047Z,0.98
2023-11-11T22:55:40.945Z,1.10
2023-11-11T22:58:07.421Z,0.88
2023-11-11T23:00:33.820Z,1.08
2023-11-11T23:03:09.181Z,1.00
2023-11-11T23:05:36.174Z,0.88
2023-11-11T23:08:05.979Z,1.20
2023-11-11T23:10:33.911Z,1.33
2023-11-11T23:13:01.375Z,1.00
2023-11-11T23:15:30.135Z,1.00
2023-11-11T23:17:57.183Z,0.88
2023-11-11T23:20:23.714Z,1.08
2023-11-11T23:22:50.310Z,1.20
2023-11-11T23:25:16.774Z,1.00
2023-11-11T23:27:44.227Z,1.42
2023-11-11T23:30:11.445Z,1.10
2023-11-11T23:32:38.891Z,0.90
2023-11-11T23:35:06.082Z,1.00
2023-11-11T23:37:32.728Z,1.10
2023-11-11T23:39:59.200Z,1.10
2023-11-11T23:42:25.596Z,1.30
2023-11-11T23:44:52.048Z,1.10
2023-11-11T23:47:19.540Z,1.00
2023-11-11T23:49:46.080Z,1.00
2023-11-11T23:52:12.598Z,1.00
2023-11-11T23:54:39.037Z,1.20
2023-11-11T23:57:06.169Z,1.00
2023-11-11T23:59:32.618Z,1.10
